Phil's Backyard

 Latitude S 29° 46' 26"    Longitude E 151° 07' 14"    Elevation 586 m

:now: :today: :yesterday: :daily data: :this month: :this year: :records: :monthly records:
:gauges: :graphs: :weatherzone: :forum: :dashboard: :webcam:


A Fire Weather Index for personal weather stations

(See below the table for background)
Legend:
Low (0-210)
Very High (490 - 630)

Moderate (210 - 350)
Extreme (630 - 800)

High (350 - 490)
Catastrophic (800+)


Flame  Flame
554.7
Date Temp. (°C) Wind Speed (km/h) Rain (mm) RH Days since Rain pwsFWI
Prediction is active (including today!), values are above red line.
01/12/20 37.0 15.0 0.0 0.24 8 741.4
30/11/20 38.0 15.0 0.0 0.20 7 696.9
29/11/20 35.0 17.0 0.0 0.23 6 668.2
28/11/20 34.0 10.0 0.0 0.20 5 757.4
27/11/20 33.0 16.0 0.0 0.28 4 779.7
26/11/20 33.3 11.3 0.0 0.27 3 554.7
25/11/20 31.8 14.5 0.0 0.27 2 602.2
24/11/20 32.8 16.1 0.0 0.18 1 576.6
23/11/20 34.0 29.0 0.2 0.23 0 543.3
22/11/20 34.7 12.9 0.0 0.24 1 521.2
21/11/20 33.7 19.3 27.6 0.31 0 629.7
20/11/20 33.9 17.7 0.0 0.29 7 689.5
19/11/20 33.4 9.7 0.0 0.25 6 676.6
18/11/20 32.7 14.5 0.0 0.31 5 662.5
17/11/20 33.6 12.9 0.0 0.21 4 562.8
16/11/20 37.2 16.1 0.0 0.16 3 521.0
15/11/20 33.5 11.3 0.0 0.15 2 411.2
14/11/20 30.8 17.7 0.0 0.23 1 390.6
13/11/20 26.3 17.7 1.0 0.49 0 344.2
12/11/20 29.3 16.1 3.2 0.33 0 436.5
11/11/20 29.0 11.3 0.0 0.28 12 484.1
10/11/20 28.1 11.3 0.0 0.27 11 559.2
09/11/20 26.6 14.5 0.0 0.21 10 564.2
08/11/20 27.2 16.1 0.0 0.35 9 576.5
07/11/20 27.7 19.3 0.0 0.23 8 552.7
06/11/20 23.8 19.3 0.0 0.30 7 499.6
05/11/20 29.3 24.1 0.0 0.28 6 545.8
04/11/20 29.2 11.3 0.0 0.25 5 584.0
03/11/20 28.2 14.5 0.0 0.16 4 597.4
02/11/20 27.6 11.3 0.0 0.37 3 503.4
01/11/20 23.9 16.1 0.0 0.39 2 517.9
31/10/20 26.3 24.1 0.0 0.23 1 523.5
30/10/20 28.7 30.6 0.8 0.25 0 468.7
29/10/20 23.8 19.3 0.0 0.27 1 216.6
28/10/20 27.1 19.3 4.6 0.41 0 246.3
27/10/20 26.2 14.5 0.0 0.31 3 208.5
26/10/20 23.9 16.1 0.0 0.32 2 139.6
25/10/20 26.7 19.3 0.0 0.46 1 131.3
24/10/20 20.4 14.5 40.8 0.82 0 116.3
23/10/20 27.1 19.3 16.6 0.55 0 78.2
22/10/20 25.1 11.3 2.6 0.53 0 178.6
21/10/20 26.8 17.7 2.6 0.45 0 287.1
20/10/20 26.9 12.9 0.0 0.37 2 301.1
19/10/20 24.9 16.1 0.0 0.46 1 367.5
18/10/20 25.8 17.7 9.4 0.40 0 393.0
17/10/20 30.1 16.1 0.0 0.24 5 374.5
16/10/20 29.6 14.5 0.0 0.24 4 323.8
15/10/20 27.7 8.0 0.0 0.22 3 305.5
14/10/20 25.6 14.5 0.0 0.26 2 350.6
13/10/20 25.5 14.5 0.0 0.39 1 279.3
12/10/20 25.2 16.1 2.2 0.37 0 307.9
11/10/20 27.2 9.7 0.0 0.22 3 336.1
10/10/20 25.9 12.9 0.0 0.14 2 333.7
09/10/20 24.9 17.7 0.0 0.17 1 323.4
08/10/20 29.8 16.1 2.2 0.37 0 323.3
07/10/20 27.8 11.3 0.0 0.35 7 367.2
06/10/20 29.3 9.7 0.0 0.27 6 350.0
05/10/20 27.2 9.7 0.0 0.24 5 304.2
04/10/20 28.2 11.3 0.0 0.25 4 288.8
03/10/20 29.1 8.0 0.0 0.21 3 223.7

Science background here. Prediction: https://www.yourweather.co.uk/
:now: :today: :yesterday: :daily data: :this month: :this year: :records: :monthly records:
:gauges: :graphs: :weatherzone: :forum: :dashboard: ::
:
fire index: :fwi graphs: :top10: :extremes: :sysinfo:


Page updated daily at 9:00 AM
powered by CumulusMX v3.1.2 (3055) Valid HTML | Valid CSS
this page by Hans Rottier from the Cumulus Forum

Cumulus Top Weather Sites